Terminal Aerodrome Forecast
Issued by NWS Billings, MT

Home | Current Version | Previous Version | Text Only | Print | Product List | Glossary On
Versions: 1 2 3 4 5 6 7 8 9 10 11 12
000
FTUS45 KBYZ 261725
TAFMLS
TAF
KMLS 261725Z 2618/2718 16015KT P6SM SCT200
     FM262100 15015G25KT P6SM SCT150
     FM270200 15009KT P6SM SCT100=

USA.gov is the U.S. government's official web portal to all federal, state and local government web resources and services.